Kourion — HONA — position and weather

sailwx.info

Track history (hours):
 
Tides and Currents Weather Stations Pressure Air Temp Water Temp Dewpoint Dewpoint Depression Visibility Wind Speed Wind Dir Waves Ship Positions

Kourion

Last reported at 2018-May-21 07:19 UTC. Time now 2018-May-24 14:07 UTC.
Position N 39°48' W 072°59'.

Length 183 m; draft 8.5 m.

Type: Tanker. MMSI: 373953000.

Date/timePositionNaut miles runAvg speedWind from/ knotsBaromVisibWave heightAir tempDewpointWater temp
2018-May-21 07:19N 39°48' W 072°59'512.5
2018-May-21 06:54N 39°52' W 073°04'512.4
2018-May-21 06:30N 39°55' W 073°09'612.3
2018-May-21 06:00N 39°60' W 073°15'812.3
2018-May-21 05:20N 40°05' W 073°22'512.1
2018-May-21 04:55N 40°09' W 073°27'611.5
2018-May-21 04:26N 40°13' W 073°32'1810.4
2018-May-21 02:44N 40°25' W 073°48'210.2
2018-May-21 02:30N 40°27' W 073°51'510.1
2018-May-21 02:00N 40°30' W 073°56'510.4
2018-May-21 01:30N 40°33' W 074°02'611.5
2018-May-21 01:00N 40°38' W 074°04'0 0.4
2018-May-21 00:29N 40°38' W 074°04'0 0.1
2018-May-20 23:59N 40°38' W 074°04'0 0.0
2018-May-20 23:29N 40°38' W 074°04'0 0.0
2018-May-20 22:59N 40°38' W 074°04'0 0.1
2018-May-20 22:29N 40°38' W 074°04'0 0.0
2018-May-20 21:59N 40°38' W 074°04'0 0.0
2018-May-20 21:29N 40°38' W 074°04'0 0.0
2018-May-20 20:59N 40°38' W 074°04'0 0.0
2018-May-20 20:29N 40°38' W 074°04'0 0.0
2018-May-20 19:59N 40°38' W 074°04'0 0.1
2018-May-20 19:29N 40°38' W 074°04'0 0.1
2018-May-20 18:59N 40°38' W 074°04'0 0.1
2018-May-20 18:29N 40°38' W 074°04'0 0.1
2018-May-20 17:59N 40°38' W 074°04'0 0.1
2018-May-20 17:29N 40°39' W 074°04'0 0.0
2018-May-20 16:59N 40°39' W 074°04'0 0.0
2018-May-20 16:29N 40°39' W 074°04'0 0.2
2018-May-20 16:01N 40°38' W 074°04'1 1.4
2018-May-20 15:30N 40°38' W 074°04'4 7.2
2018-May-20 15:00N 40°34' W 074°02'611.2
2018-May-20 14:30N 40°30' W 073°57'3 6.7
2018-May-20 14:00N 40°27' W 073°56'4 8.9
2018-May-20 13:30N 40°29' W 074°01'8 0.3
2018-May-19 09:00N 40°30' W 074°11'510.0
2018-May-19 08:30N 40°29' W 074°05'4 8.5
2018-May-19 08:00N 40°29' W 073°59'5 9.3
2018-May-19 07:26N 40°27' W 073°53'10 0.5
2018-May-18 13:16N 40°28' W 073°40'2 5.1
2018-May-18 12:57N 40°27' W 073°41'510.6
2018-May-18 12:29N 40°23' W 073°45'4 7.1
2018-May-18 11:54N 40°19' W 073°46'610.5
2018-May-18 11:21N 40°13' W 073°45'410.3
2018-May-18 11:00N 40°10' W 073°45'510.7
2018-May-18 10:30N 40°04' W 073°44'712.9
2018-May-18 10:00N 39°58' W 073°43'713.0
2018-May-18 09:30N 39°51' W 073°42'612.6
2018-May-18 09:00N 39°45' W 073°41'612.7
2018-May-18 08:30N 39°40' W 073°45'712.8
2018-May-18 08:00N 39°34' W 073°50'712.7
2018-May-18 07:26N 39°28' W 073°55'512.7
2018-May-18 07:00N 39°24' W 073°59'912.8
2018-May-18 06:20N 39°17' W 074°05'1813.0
2018-May-18 04:59N 39°02' W 074°18'1013.0
2018-May-18 04:16N 38°54' W 074°24'413.1
2018-May-18 03:59N 38°51' W 074°27'2310.8
2018-May-18 01:50N 38°45' W 074°56'410.6
2018-May-18 01:30N 38°46' W 075°00'6 8.8
2018-May-18 00:50N 38°51' W 075°05'5 9.1
2018-May-18 00:19N 38°55' W 075°06'310.6
2018-May-17 23:59N 38°59' W 075°08'511.2
2018-May-17 23:30N 39°04' W 075°10'612.2
2018-May-17 23:00N 39°09' W 075°14'713.6
2018-May-17 22:30N 39°15' W 075°19'714.3
2018-May-17 22:00N 39°20' W 075°25'714.9
2018-May-17 21:30N 39°25' W 075°32'713.4
2018-May-17 21:00N 39°32' W 075°33'612.9
2018-May-17 20:31N 39°39' W 075°34'612.8
2018-May-17 20:00N 39°44' W 075°30'5 9.9
2018-May-17 19:30N 39°48' W 075°26'1 1.2
2018-May-17 19:00N 39°48' W 075°25'0 0.0
2018-May-17 18:30N 39°48' W 075°25'  
2018-May-15 05:33N 39°48' W 075°25'0 0.0
2018-May-15 05:30N 39°48' W 075°25'1 1.4
2018-May-15 05:00N 39°48' W 075°26'510.2
2018-May-15 04:30N 39°44' W 075°30'612.7
2018-May-15 04:00N 39°38' W 075°34'612.1
2018-May-15 03:31N 39°32' W 075°33'612.9
2018-May-15 03:00N 39°26' W 075°32'714.5
2018-May-15 02:31N 39°21' W 075°26'713.6
2018-May-15 02:00N 39°16' W 075°20'714.1
2018-May-15 01:30N 39°10' W 075°15'713.6
2018-May-15 01:00N 39°04' W 075°10'713.8
2018-May-15 00:30N 38°57' W 075°07'1013.0
2018-May-14 23:44N 38°48' W 075°03'2 8.8
2018-May-14 23:30N 38°46' W 075°01'712.0
2018-May-14 22:54N 38°42' W 074°54'614.2
2018-May-14 22:30N 38°37' W 074°50'  
Track history (hours):
 
Tides and Currents Weather Stations Pressure Air Temp Water Temp Dewpoint Dewpoint Depression Visibility Wind Speed Wind Dir Waves Ship Positions

Kourion

Last reported at 2018-May-21 07:19 UTC. Time now 2018-May-24 14:07 UTC.
Position N 39°48' W 072°59'.

Length 183 m; draft 8.5 m.

Type: Tanker. MMSI: 373953000.

Date/timePositionNaut miles runAvg speedWind from/ knotsBaromVisibWave heightAir tempDewpointWater temp
2018-May-21 07:19N 39°48' W 072°59'512.5
2018-May-21 06:54N 39°52' W 073°04'512.4
2018-May-21 06:30N 39°55' W 073°09'612.3
2018-May-21 06:00N 39°60' W 073°15'812.3
2018-May-21 05:20N 40°05' W 073°22'512.1
2018-May-21 04:55N 40°09' W 073°27'611.5
2018-May-21 04:26N 40°13' W 073°32'1810.4
2018-May-21 02:44N 40°25' W 073°48'210.2
2018-May-21 02:30N 40°27' W 073°51'510.1
2018-May-21 02:00N 40°30' W 073°56'510.4
2018-May-21 01:30N 40°33' W 074°02'611.5
2018-May-21 01:00N 40°38' W 074°04'0 0.4
2018-May-21 00:29N 40°38' W 074°04'0 0.1
2018-May-20 23:59N 40°38' W 074°04'0 0.0
2018-May-20 23:29N 40°38' W 074°04'0 0.0
2018-May-20 22:59N 40°38' W 074°04'0 0.1
2018-May-20 22:29N 40°38' W 074°04'0 0.0
2018-May-20 21:59N 40°38' W 074°04'0 0.0
2018-May-20 21:29N 40°38' W 074°04'0 0.0
2018-May-20 20:59N 40°38' W 074°04'0 0.0
2018-May-20 20:29N 40°38' W 074°04'0 0.0
2018-May-20 19:59N 40°38' W 074°04'0 0.1
2018-May-20 19:29N 40°38' W 074°04'0 0.1
2018-May-20 18:59N 40°38' W 074°04'0 0.1
2018-May-20 18:29N 40°38' W 074°04'0 0.1
2018-May-20 17:59N 40°38' W 074°04'0 0.1
2018-May-20 17:29N 40°39' W 074°04'0 0.0
2018-May-20 16:59N 40°39' W 074°04'0 0.0
2018-May-20 16:29N 40°39' W 074°04'0 0.2
2018-May-20 16:01N 40°38' W 074°04'1 1.4
2018-May-20 15:30N 40°38' W 074°04'4 7.2
2018-May-20 15:00N 40°34' W 074°02'611.2
2018-May-20 14:30N 40°30' W 073°57'3 6.7
2018-May-20 14:00N 40°27' W 073°56'4 8.9
2018-May-20 13:30N 40°29' W 074°01'8 0.3
2018-May-19 09:00N 40°30' W 074°11'510.0
2018-May-19 08:30N 40°29' W 074°05'4 8.5
2018-May-19 08:00N 40°29' W 073°59'5 9.3
2018-May-19 07:26N 40°27' W 073°53'10 0.5
2018-May-18 13:16N 40°28' W 073°40'2 5.1
2018-May-18 12:57N 40°27' W 073°41'510.6
2018-May-18 12:29N 40°23' W 073°45'4 7.1
2018-May-18 11:54N 40°19' W 073°46'610.5
2018-May-18 11:21N 40°13' W 073°45'410.3
2018-May-18 11:00N 40°10' W 073°45'510.7
2018-May-18 10:30N 40°04' W 073°44'712.9
2018-May-18 10:00N 39°58' W 073°43'713.0
2018-May-18 09:30N 39°51' W 073°42'612.6
2018-May-18 09:00N 39°45' W 073°41'612.7
2018-May-18 08:30N 39°40' W 073°45'712.8
2018-May-18 08:00N 39°34' W 073°50'712.7
2018-May-18 07:26N 39°28' W 073°55'512.7
2018-May-18 07:00N 39°24' W 073°59'912.8
2018-May-18 06:20N 39°17' W 074°05'1813.0
2018-May-18 04:59N 39°02' W 074°18'1013.0
2018-May-18 04:16N 38°54' W 074°24'413.1
2018-May-18 03:59N 38°51' W 074°27'2310.8
2018-May-18 01:50N 38°45' W 074°56'410.6
2018-May-18 01:30N 38°46' W 075°00'6 8.8
2018-May-18 00:50N 38°51' W 075°05'5 9.1
2018-May-18 00:19N 38°55' W 075°06'310.6
2018-May-17 23:59N 38°59' W 075°08'511.2
2018-May-17 23:30N 39°04' W 075°10'612.2
2018-May-17 23:00N 39°09' W 075°14'713.6
2018-May-17 22:30N 39°15' W 075°19'714.3
2018-May-17 22:00N 39°20' W 075°25'714.9
2018-May-17 21:30N 39°25' W 075°32'713.4
2018-May-17 21:00N 39°32' W 075°33'612.9
2018-May-17 20:31N 39°39' W 075°34'612.8
2018-May-17 20:00N 39°44' W 075°30'5 9.9
2018-May-17 19:30N 39°48' W 075°26'1 1.2
2018-May-17 19:00N 39°48' W 075°25'0 0.0
2018-May-17 18:30N 39°48' W 075°25'  
2018-May-15 05:33N 39°48' W 075°25'0 0.0
2018-May-15 05:30N 39°48' W 075°25'1 1.4
2018-May-15 05:00N 39°48' W 075°26'510.2
2018-May-15 04:30N 39°44' W 075°30'612.7
2018-May-15 04:00N 39°38' W 075°34'612.1
2018-May-15 03:31N 39°32' W 075°33'612.9
2018-May-15 03:00N 39°26' W 075°32'714.5
2018-May-15 02:31N 39°21' W 075°26'713.6
2018-May-15 02:00N 39°16' W 075°20'714.1
2018-May-15 01:30N 39°10' W 075°15'713.6
2018-May-15 01:00N 39°04' W 075°10'713.8
2018-May-15 00:30N 38°57' W 075°07'1013.0
2018-May-14 23:44N 38°48' W 075°03'2 8.8
2018-May-14 23:30N 38°46' W 075°01'712.0
2018-May-14 22:54N 38°42' W 074°54'614.2
2018-May-14 22:30N 38°37' W 074°50'  

Dump ship's entire track history